sensor_id;sensor_type;location;lat;lon;timestamp;P1;durP1;ratioP1;P2;durP2;ratioP2
77432;SDS011;66752;48.576;8.876;2023-03-01T00:02:03;25.95;;;9.82;;
77432;SDS011;66752;48.576;8.876;2023-03-01T00:04:29;22.95;;;9.98;;
77432;SDS011;66752;48.576;8.876;2023-03-01T00:06:55;17.95;;;10.07;;
77432;SDS011;66752;48.576;8.876;2023-03-01T00:09:21;24.27;;;11.68;;
77432;SDS011;66752;48.576;8.876;2023-03-01T00:11:47;19.45;;;9.98;;
77432;SDS011;66752;48.576;8.876;2023-03-01T00:14:13;19.42;;;10.40;;
77432;SDS011;66752;48.576;8.876;2023-03-01T00:19:07;18.77;;;8.88;;
77432;SDS011;66752;48.576;8.876;2023-03-01T00:21:33;20.23;;;9.38;;
77432;SDS011;66752;48.576;8.876;2023-03-01T00:24:00;22.88;;;10.50;;
77432;SDS011;66752;48.576;8.876;2023-03-01T00:26:26;18.38;;;9.75;;
77432;SDS011;66752;48.576;8.876;2023-03-01T00:28:52;18.90;;;10.35;;
77432;SDS011;66752;48.576;8.876;2023-03-01T00:31:21;20.05;;;10.38;;
77432;SDS011;66752;48.576;8.876;2023-03-01T00:33:47;19.80;;;9.88;;
77432;SDS011;66752;48.576;8.876;2023-03-01T00:36:13;19.13;;;9.85;;
77432;SDS011;66752;48.576;8.876;2023-03-01T00:38:41;17.00;;;9.88;;
77432;SDS011;66752;48.576;8.876;2023-03-01T00:41:08;20.50;;;9.82;;
77432;SDS011;66752;48.576;8.876;2023-03-01T00:43:35;16.88;;;9.40;;
77432;SDS011;66752;48.576;8.876;2023-03-01T00:46:05;20.02;;;9.32;;
77432;SDS011;66752;48.576;8.876;2023-03-01T00:48:31;16.83;;;9.77;;
77432;SDS011;66752;48.576;8.876;2023-03-01T00:50:57;19.75;;;10.02;;
77432;SDS011;66752;48.576;8.876;2023-03-01T00:53:29;18.25;;;10.20;;
77432;SDS011;66752;48.576;8.876;2023-03-01T00:55:56;16.13;;;9.27;;
77432;SDS011;66752;48.576;8.876;2023-03-01T00:58:22;19.45;;;10.60;;
77432;SDS011;66752;48.576;8.876;2023-03-01T01:00:48;19.98;;;9.75;;
77432;SDS011;66752;48.576;8.876;2023-03-01T01:03:15;15.77;;;9.30;;
77432;SDS011;66752;48.576;8.876;2023-03-01T01:05:40;20.65;;;11.57;;
77432;SDS011;66752;48.576;8.876;2023-03-01T01:08:06;17.45;;;10.18;;
77432;SDS011;66752;48.576;8.876;2023-03-01T01:10:35;22.08;;;9.82;;
77432;SDS011;66752;48.576;8.876;2023-03-01T01:13:01;19.17;;;10.27;;
77432;SDS011;66752;48.576;8.876;2023-03-01T01:15:27;18.85;;;10.32;;
77432;SDS011;66752;48.576;8.876;2023-03-01T01:17:53;16.45;;;10.38;;
77432;SDS011;66752;48.576;8.876;2023-03-01T01:20:19;16.02;;;9.55;;
77432;SDS011;66752;48.576;8.876;2023-03-01T01:22:45;20.08;;;10.80;;
77432;SDS011;66752;48.576;8.876;2023-03-01T01:25:11;20.95;;;9.23;;
77432;SDS011;66752;48.576;8.876;2023-03-01T01:27:37;16.75;;;9.95;;
77432;SDS011;66752;48.576;8.876;2023-03-01T01:30:03;18.50;;;10.27;;
77432;SDS011;66752;48.576;8.876;2023-03-01T01:32:30;19.88;;;10.20;;
77432;SDS011;66752;48.576;8.876;2023-03-01T01:34:56;21.70;;;10.45;;
77432;SDS011;66752;48.576;8.876;2023-03-01T01:37:22;18.00;;;9.68;;
77432;SDS011;66752;48.576;8.876;2023-03-01T01:39:48;20.02;;;10.18;;
77432;SDS011;66752;48.576;8.876;2023-03-01T01:42:17;20.20;;;10.43;;
77432;SDS011;66752;48.576;8.876;2023-03-01T01:44:47;20.88;;;10.02;;
77432;SDS011;66752;48.576;8.876;2023-03-01T01:47:14;22.73;;;10.75;;
77432;SDS011;66752;48.576;8.876;2023-03-01T01:52:16;20.67;;;10.93;;
77432;SDS011;66752;48.576;8.876;2023-03-01T01:57:12;18.70;;;9.82;;
77432;SDS011;66752;48.576;8.876;2023-03-01T01:59:39;16.23;;;9.75;;
77432;SDS011;66752;48.576;8.876;2023-03-01T02:02:07;20.13;;;10.23;;
77432;SDS011;66752;48.576;8.876;2023-03-01T02:04:33;18.48;;;10.40;;
77432;SDS011;66752;48.576;8.876;2023-03-01T02:09:54;17.17;;;8.77;;
77432;SDS011;66752;48.576;8.876;2023-03-01T02:12:21;17.65;;;9.52;;
77432;SDS011;66752;48.576;8.876;2023-03-01T02:14:48;17.85;;;9.90;;
77432;SDS011;66752;48.576;8.876;2023-03-01T02:17:15;19.13;;;9.40;;
77432;SDS011;66752;48.576;8.876;2023-03-01T02:19:44;20.73;;;10.02;;
77432;SDS011;66752;48.576;8.876;2023-03-01T02:22:15;19.05;;;9.63;;
77432;SDS011;66752;48.576;8.876;2023-03-01T02:25:07;21.30;;;9.85;;
77432;SDS011;66752;48.576;8.876;2023-03-01T02:27:41;19.63;;;9.63;;
77432;SDS011;66752;48.576;8.876;2023-03-01T02:30:09;19.65;;;8.95;;
77432;SDS011;66752;48.576;8.876;2023-03-01T02:32:37;19.20;;;10.07;;
77432;SDS011;66752;48.576;8.876;2023-03-01T02:35:06;19.40;;;10.73;;
77432;SDS011;66752;48.576;8.876;2023-03-01T02:37:33;18.00;;;9.73;;
77432;SDS011;66752;48.576;8.876;2023-03-01T02:40:02;20.80;;;10.15;;
77432;SDS011;66752;48.576;8.876;2023-03-01T02:42:35;20.33;;;10.32;;
77432;SDS011;66752;48.576;8.876;2023-03-01T02:45:01;19.45;;;9.93;;
77432;SDS011;66752;48.576;8.876;2023-03-01T02:47:27;20.45;;;9.85;;
77432;SDS011;66752;48.576;8.876;2023-03-01T02:49:53;16.17;;;9.85;;
77432;SDS011;66752;48.576;8.876;2023-03-01T02:55:08;20.05;;;9.65;;
77432;SDS011;66752;48.576;8.876;2023-03-01T02:57:35;19.45;;;10.93;;
77432;SDS011;66752;48.576;8.876;2023-03-01T03:00:03;21.05;;;10.90;;
77432;SDS011;66752;48.576;8.876;2023-03-01T03:02:32;17.85;;;10.18;;
77432;SDS011;66752;48.576;8.876;2023-03-01T03:05:11;18.42;;;9.25;;
77432;SDS011;66752;48.576;8.876;2023-03-01T03:07:39;18.27;;;10.38;;
77432;SDS011;66752;48.576;8.876;2023-03-01T03:12:31;20.75;;;9.93;;
77432;SDS011;66752;48.576;8.876;2023-03-01T03:14:57;18.92;;;10.13;;
77432;SDS011;66752;48.576;8.876;2023-03-01T03:17:23;19.02;;;9.70;;
77432;SDS011;66752;48.576;8.876;2023-03-01T03:19:49;16.23;;;9.55;;
77432;SDS011;66752;48.576;8.876;2023-03-01T03:22:15;19.70;;;10.05;;
77432;SDS011;66752;48.576;8.876;2023-03-01T03:24:41;18.83;;;9.68;;
77432;SDS011;66752;48.576;8.876;2023-03-01T03:27:10;20.08;;;11.27;;
77432;SDS011;66752;48.576;8.876;2023-03-01T03:29:36;17.67;;;9.60;;
77432;SDS011;66752;48.576;8.876;2023-03-01T03:32:02;17.00;;;10.13;;
77432;SDS011;66752;48.576;8.876;2023-03-01T03:34:28;21.77;;;10.27;;
77432;SDS011;66752;48.576;8.876;2023-03-01T03:36:55;20.33;;;10.07;;
77432;SDS011;66752;48.576;8.876;2023-03-01T03:39:24;18.45;;;10.45;;
77432;SDS011;66752;48.576;8.876;2023-03-01T03:41:51;27.90;;;10.82;;
77432;SDS011;66752;48.576;8.876;2023-03-01T03:44:17;20.65;;;11.15;;
77432;SDS011;66752;48.576;8.876;2023-03-01T03:46:43;23.75;;;11.18;;
77432;SDS011;66752;48.576;8.876;2023-03-01T03:49:09;22.15;;;10.43;;
77432;SDS011;66752;48.576;8.876;2023-03-01T03:51:35;21.42;;;10.02;;
77432;SDS011;66752;48.576;8.876;2023-03-01T03:54:01;17.60;;;9.48;;
77432;SDS011;66752;48.576;8.876;2023-03-01T03:56:27;20.52;;;10.43;;
77432;SDS011;66752;48.576;8.876;2023-03-01T03:58:53;26.90;;;11.38;;
77432;SDS011;66752;48.576;8.876;2023-03-01T04:01:19;18.30;;;11.30;;
77432;SDS011;66752;48.576;8.876;2023-03-01T04:03:45;17.13;;;10.00;;
77432;SDS011;66752;48.576;8.876;2023-03-01T04:06:11;18.23;;;10.68;;
77432;SDS011;66752;48.576;8.876;2023-03-01T04:08:37;16.55;;;9.25;;
77432;SDS011;66752;48.576;8.876;2023-03-01T04:11:04;20.50;;;11.63;;
77432;SDS011;66752;48.576;8.876;2023-03-01T04:13:50;21.98;;;11.38;;
77432;SDS011;66752;48.576;8.876;2023-03-01T04:16:16;18.80;;;11.23;;
77432;SDS011;66752;48.576;8.876;2023-03-01T04:18:42;19.45;;;11.18;;
77432;SDS011;66752;48.576;8.876;2023-03-01T04:21:08;20.95;;;11.35;;
77432;SDS011;66752;48.576;8.876;2023-03-01T04:23:36;20.83;;;11.02;;
77432;SDS011;66752;48.576;8.876;2023-03-01T04:26:02;21.00;;;11.25;;
77432;SDS011;66752;48.576;8.876;2023-03-01T04:31:01;20.65;;;10.45;;
77432;SDS011;66752;48.576;8.876;2023-03-01T04:33:29;19.48;;;10.60;;
77432;SDS011;66752;48.576;8.876;2023-03-01T04:35:55;21.65;;;10.75;;
77432;SDS011;66752;48.576;8.876;2023-03-01T04:38:22;24.13;;;11.48;;
77432;SDS011;66752;48.576;8.876;2023-03-01T04:40:48;20.95;;;11.45;;
77432;SDS011;66752;48.576;8.876;2023-03-01T04:43:14;25.85;;;11.90;;
77432;SDS011;66752;48.576;8.876;2023-03-01T04:45:41;19.75;;;11.02;;
77432;SDS011;66752;48.576;8.876;2023-03-01T04:48:07;20.10;;;11.13;;
77432;SDS011;66752;48.576;8.876;2023-03-01T04:50:33;21.70;;;12.13;;
77432;SDS011;66752;48.576;8.876;2023-03-01T04:52:59;18.92;;;11.13;;
77432;SDS011;66752;48.576;8.876;2023-03-01T04:55:28;20.15;;;9.75;;
77432;SDS011;66752;48.576;8.876;2023-03-01T04:57:54;22.17;;;10.27;;
77432;SDS011;66752;48.576;8.876;2023-03-01T05:00:20;20.05;;;11.43;;
77432;SDS011;66752;48.576;8.876;2023-03-01T05:02:47;21.10;;;11.13;;
77432;SDS011;66752;48.576;8.876;2023-03-01T05:05:14;21.02;;;10.95;;
77432;SDS011;66752;48.576;8.876;2023-03-01T05:07:40;18.92;;;10.70;;
77432;SDS011;66752;48.576;8.876;2023-03-01T05:10:06;22.08;;;12.18;;
77432;SDS011;66752;48.576;8.876;2023-03-01T05:12:32;21.48;;;10.77;;
77432;SDS011;66752;48.576;8.876;2023-03-01T05:14:58;21.42;;;10.73;;
77432;SDS011;66752;48.576;8.876;2023-03-01T05:17:24;21.05;;;11.05;;
77432;SDS011;66752;48.576;8.876;2023-03-01T05:19:50;20.80;;;10.52;;
77432;SDS011;66752;48.576;8.876;2023-03-01T05:22:16;25.65;;;12.88;;
77432;SDS011;66752;48.576;8.876;2023-03-01T05:24:42;22.42;;;11.63;;
77432;SDS011;66752;48.576;8.876;2023-03-01T05:27:08;22.77;;;11.10;;
77432;SDS011;66752;48.576;8.876;2023-03-01T05:29:34;20.73;;;10.90;;
77432;SDS011;66752;48.576;8.876;2023-03-01T05:32:00;20.08;;;11.25;;
77432;SDS011;66752;48.576;8.876;2023-03-01T05:34:31;19.67;;;10.80;;
77432;SDS011;66752;48.576;8.876;2023-03-01T05:36:57;25.88;;;12.43;;
77432;SDS011;66752;48.576;8.876;2023-03-01T05:39:24;19.98;;;12.00;;
77432;SDS011;66752;48.576;8.876;2023-03-01T05:41:57;23.45;;;11.45;;
77432;SDS011;66752;48.576;8.876;2023-03-01T05:44:23;23.48;;;10.90;;
77432;SDS011;66752;48.576;8.876;2023-03-01T05:46:50;22.35;;;11.20;;
77432;SDS011;66752;48.576;8.876;2023-03-01T05:49:16;24.65;;;11.57;;
77432;SDS011;66752;48.576;8.876;2023-03-01T05:51:43;20.42;;;11.73;;
77432;SDS011;66752;48.576;8.876;2023-03-01T05:54:12;21.60;;;11.85;;
77432;SDS011;66752;48.576;8.876;2023-03-01T05:56:38;27.45;;;14.77;;
77432;SDS011;66752;48.576;8.876;2023-03-01T05:59:05;33.83;;;17.80;;
77432;SDS011;66752;48.576;8.876;2023-03-01T06:01:31;31.38;;;16.25;;
77432;SDS011;66752;48.576;8.876;2023-03-01T06:03:57;30.75;;;14.10;;
77432;SDS011;66752;48.576;8.876;2023-03-01T06:06:23;27.10;;;14.02;;
77432;SDS011;66752;48.576;8.876;2023-03-01T06:08:49;25.05;;;12.73;;
77432;SDS011;66752;48.576;8.876;2023-03-01T06:11:16;22.52;;;12.38;;
77432;SDS011;66752;48.576;8.876;2023-03-01T06:13:44;20.92;;;11.50;;
77432;SDS011;66752;48.576;8.876;2023-03-01T06:16:11;23.45;;;12.65;;
77432;SDS011;66752;48.576;8.876;2023-03-01T06:18:37;20.88;;;11.68;;
77432;SDS011;66752;48.576;8.876;2023-03-01T06:21:04;20.25;;;11.20;;
77432;SDS011;66752;48.576;8.876;2023-03-01T06:23:30;24.65;;;13.05;;
77432;SDS011;66752;48.576;8.876;2023-03-01T06:25:56;24.60;;;12.80;;
77432;SDS011;66752;48.576;8.876;2023-03-01T06:28:22;20.98;;;11.32;;
77432;SDS011;66752;48.576;8.876;2023-03-01T06:30:49;23.17;;;12.65;;
77432;SDS011;66752;48.576;8.876;2023-03-01T06:33:16;24.55;;;12.35;;
77432;SDS011;66752;48.576;8.876;2023-03-01T06:35:44;21.45;;;12.18;;
77432;SDS011;66752;48.576;8.876;2023-03-01T06:38:10;24.90;;;12.52;;
77432;SDS011;66752;48.576;8.876;2023-03-01T06:40:36;26.52;;;12.50;;
77432;SDS011;66752;48.576;8.876;2023-03-01T06:43:02;26.33;;;12.70;;
77432;SDS011;66752;48.576;8.876;2023-03-01T06:45:28;26.17;;;12.43;;
77432;SDS011;66752;48.576;8.876;2023-03-01T06:48:00;25.88;;;13.23;;
77432;SDS011;66752;48.576;8.876;2023-03-01T06:50:28;30.48;;;16.55;;
77432;SDS011;66752;48.576;8.876;2023-03-01T06:52:57;23.75;;;13.48;;
77432;SDS011;66752;48.576;8.876;2023-03-01T06:55:23;21.27;;;12.52;;
77432;SDS011;66752;48.576;8.876;2023-03-01T06:57:53;22.38;;;12.65;;
77432;SDS011;66752;48.576;8.876;2023-03-01T07:00:20;22.02;;;11.40;;
77432;SDS011;66752;48.576;8.876;2023-03-01T07:02:46;23.40;;;11.60;;
77432;SDS011;66752;48.576;8.876;2023-03-01T07:05:12;22.52;;;12.15;;
77432;SDS011;66752;48.576;8.876;2023-03-01T07:07:38;24.73;;;14.63;;
77432;SDS011;66752;48.576;8.876;2023-03-01T07:10:04;24.58;;;12.88;;
77432;SDS011;66752;48.576;8.876;2023-03-01T07:12:30;21.98;;;11.43;;
77432;SDS011;66752;48.576;8.876;2023-03-01T07:14:56;21.52;;;12.82;;
77432;SDS011;66752;48.576;8.876;2023-03-01T07:17:22;19.80;;;11.85;;
77432;SDS011;66752;48.576;8.876;2023-03-01T07:19:48;25.30;;;12.68;;
77432;SDS011;66752;48.576;8.876;2023-03-01T07:22:14;21.48;;;12.40;;
77432;SDS011;66752;48.576;8.876;2023-03-01T07:24:40;23.23;;;11.85;;
77432;SDS011;66752;48.576;8.876;2023-03-01T07:27:06;25.35;;;13.13;;
77432;SDS011;66752;48.576;8.876;2023-03-01T07:29:32;23.02;;;12.57;;
77432;SDS011;66752;48.576;8.876;2023-03-01T07:32:01;21.90;;;12.75;;
77432;SDS011;66752;48.576;8.876;2023-03-01T07:34:27;25.38;;;12.50;;
77432;SDS011;66752;48.576;8.876;2023-03-01T07:36:53;23.45;;;13.60;;
77432;SDS011;66752;48.576;8.876;2023-03-01T07:39:19;33.67;;;15.20;;
77432;SDS011;66752;48.576;8.876;2023-03-01T07:41:45;27.92;;;12.98;;
77432;SDS011;66752;48.576;8.876;2023-03-01T07:44:11;22.90;;;12.13;;
77432;SDS011;66752;48.576;8.876;2023-03-01T07:46:37;23.95;;;12.68;;
77432;SDS011;66752;48.576;8.876;2023-03-01T07:49:02;22.88;;;11.52;;
77432;SDS011;66752;48.576;8.876;2023-03-01T07:51:29;23.30;;;11.00;;
77432;SDS011;66752;48.576;8.876;2023-03-01T07:53:55;23.02;;;12.18;;
77432;SDS011;66752;48.576;8.876;2023-03-01T07:56:21;27.00;;;13.80;;
77432;SDS011;66752;48.576;8.876;2023-03-01T07:58:47;29.05;;;14.43;;
77432;SDS011;66752;48.576;8.876;2023-03-01T08:01:14;24.48;;;13.00;;
77432;SDS011;66752;48.576;8.876;2023-03-01T08:03:40;21.98;;;13.23;;
77432;SDS011;66752;48.576;8.876;2023-03-01T08:06:08;27.40;;;15.25;;
77432;SDS011;66752;48.576;8.876;2023-03-01T08:08:34;25.67;;;14.80;;
77432;SDS011;66752;48.576;8.876;2023-03-01T08:11:01;23.20;;;13.52;;
77432;SDS011;66752;48.576;8.876;2023-03-01T08:13:28;22.15;;;12.18;;
77432;SDS011;66752;48.576;8.876;2023-03-01T08:15:54;21.63;;;13.20;;
77432;SDS011;66752;48.576;8.876;2023-03-01T08:18:20;23.05;;;12.90;;
77432;SDS011;66752;48.576;8.876;2023-03-01T08:20:46;21.90;;;13.15;;
77432;SDS011;66752;48.576;8.876;2023-03-01T08:23:12;24.02;;;14.50;;
77432;SDS011;66752;48.576;8.876;2023-03-01T08:25:38;22.92;;;12.88;;
77432;SDS011;66752;48.576;8.876;2023-03-01T08:28:04;24.55;;;13.82;;
77432;SDS011;66752;48.576;8.876;2023-03-01T08:30:31;20.80;;;12.82;;
77432;SDS011;66752;48.576;8.876;2023-03-01T08:32:57;22.45;;;15.13;;
77432;SDS011;66752;48.576;8.876;2023-03-01T08:35:23;21.45;;;13.93;;
77432;SDS011;66752;48.576;8.876;2023-03-01T08:37:49;23.45;;;14.25;;
77432;SDS011;66752;48.576;8.876;2023-03-01T08:40:15;25.42;;;14.23;;
77432;SDS011;66752;48.576;8.876;2023-03-01T08:42:41;23.60;;;13.23;;
77432;SDS011;66752;48.576;8.876;2023-03-01T08:45:10;20.02;;;11.32;;
77432;SDS011;66752;48.576;8.876;2023-03-01T08:47:36;22.42;;;13.00;;
77432;SDS011;66752;48.576;8.876;2023-03-01T08:50:03;23.35;;;12.88;;
77432;SDS011;66752;48.576;8.876;2023-03-01T08:52:29;23.42;;;13.48;;
77432;SDS011;66752;48.576;8.876;2023-03-01T08:54:55;26.17;;;14.38;;
77432;SDS011;66752;48.576;8.876;2023-03-01T08:57:22;22.15;;;13.90;;
77432;SDS011;66752;48.576;8.876;2023-03-01T08:59:48;22.95;;;13.90;;
77432;SDS011;66752;48.576;8.876;2023-03-01T09:02:17;24.73;;;14.05;;
77432;SDS011;66752;48.576;8.876;2023-03-01T09:04:44;21.52;;;11.95;;
77432;SDS011;66752;48.576;8.876;2023-03-01T09:07:10;22.15;;;13.27;;
77432;SDS011;66752;48.576;8.876;2023-03-01T09:09:36;21.33;;;12.35;;
77432;SDS011;66752;48.576;8.876;2023-03-01T09:12:02;24.85;;;13.80;;
77432;SDS011;66752;48.576;8.876;2023-03-01T09:14:29;20.45;;;12.65;;
77432;SDS011;66752;48.576;8.876;2023-03-01T09:16:55;22.80;;;13.23;;
77432;SDS011;66752;48.576;8.876;2023-03-01T09:19:21;20.45;;;13.27;;
77432;SDS011;66752;48.576;8.876;2023-03-01T09:21:47;21.85;;;13.18;;
77432;SDS011;66752;48.576;8.876;2023-03-01T09:24:20;22.20;;;13.52;;
77432;SDS011;66752;48.576;8.876;2023-03-01T09:26:46;22.58;;;12.88;;
77432;SDS011;66752;48.576;8.876;2023-03-01T09:29:12;26.95;;;13.43;;
77432;SDS011;66752;48.576;8.876;2023-03-01T09:31:39;20.45;;;13.43;;
77432;SDS011;66752;48.576;8.876;2023-03-01T09:34:05;23.83;;;14.27;;
77432;SDS011;66752;48.576;8.876;2023-03-01T09:36:31;25.17;;;14.57;;
77432;SDS011;66752;48.576;8.876;2023-03-01T09:38:57;25.17;;;13.60;;
77432;SDS011;66752;48.576;8.876;2023-03-01T09:46:40;23.02;;;12.95;;
77432;SDS011;66752;48.576;8.876;2023-03-01T09:49:10;22.27;;;13.20;;
77432;SDS011;66752;48.576;8.876;2023-03-01T09:51:38;23.70;;;13.38;;
77432;SDS011;66752;48.576;8.876;2023-03-01T09:54:04;22.50;;;13.93;;
77432;SDS011;66752;48.576;8.876;2023-03-01T09:56:37;21.08;;;12.82;;
77432;SDS011;66752;48.576;8.876;2023-03-01T10:01:35;22.20;;;13.50;;
77432;SDS011;66752;48.576;8.876;2023-03-01T10:09:34;22.30;;;13.30;;
77432;SDS011;66752;48.576;8.876;2023-03-01T10:12:00;20.40;;;12.38;;
77432;SDS011;66752;48.576;8.876;2023-03-01T10:14:31;20.08;;;10.85;;
77432;SDS011;66752;48.576;8.876;2023-03-01T10:17:02;22.30;;;13.63;;
77432;SDS011;66752;48.576;8.876;2023-03-01T10:21:54;22.85;;;13.38;;
77432;SDS011;66752;48.576;8.876;2023-03-01T10:24:23;22.08;;;12.57;;
77432;SDS011;66752;48.576;8.876;2023-03-01T10:29:18;24.10;;;14.15;;
77432;SDS011;66752;48.576;8.876;2023-03-01T10:31:49;22.05;;;13.23;;
77432;SDS011;66752;48.576;8.876;2023-03-01T10:34:27;22.77;;;12.25;;
77432;SDS011;66752;48.576;8.876;2023-03-01T10:36:55;22.48;;;13.65;;
77432;SDS011;66752;48.576;8.876;2023-03-01T10:39:23;23.52;;;12.52;;
77432;SDS011;66752;48.576;8.876;2023-03-01T10:44:35;20.27;;;13.73;;
77432;SDS011;66752;48.576;8.876;2023-03-01T10:47:01;19.00;;;10.88;;
77432;SDS011;66752;48.576;8.876;2023-03-01T10:49:27;19.13;;;11.85;;
77432;SDS011;66752;48.576;8.876;2023-03-01T10:51:53;24.02;;;13.07;;
77432;SDS011;66752;48.576;8.876;2023-03-01T10:54:27;20.35;;;12.65;;
77432;SDS011;66752;48.576;8.876;2023-03-01T10:56:57;21.05;;;12.93;;
77432;SDS011;66752;48.576;8.876;2023-03-01T10:59:28;24.20;;;13.88;;
77432;SDS011;66752;48.576;8.876;2023-03-01T11:02:01;21.17;;;12.73;;
77432;SDS011;66752;48.576;8.876;2023-03-01T11:04:27;19.88;;;12.52;;
77432;SDS011;66752;48.576;8.876;2023-03-01T11:07:00;20.02;;;12.10;;
77432;SDS011;66752;48.576;8.876;2023-03-01T11:09:26;19.23;;;12.98;;
77432;SDS011;66752;48.576;8.876;2023-03-01T11:12:02;18.55;;;12.40;;
77432;SDS011;66752;48.576;8.876;2023-03-01T11:14:37;22.20;;;13.15;;
77432;SDS011;66752;48.576;8.876;2023-03-01T11:17:11;20.27;;;12.25;;
77432;SDS011;66752;48.576;8.876;2023-03-01T11:19:38;27.13;;;13.05;;
77432;SDS011;66752;48.576;8.876;2023-03-01T11:22:10;19.98;;;13.23;;
77432;SDS011;66752;48.576;8.876;2023-03-01T11:24:41;20.90;;;12.88;;
77432;SDS011;66752;48.576;8.876;2023-03-01T11:27:22;18.08;;;11.88;;
77432;SDS011;66752;48.576;8.876;2023-03-01T11:30:13;20.67;;;11.50;;
77432;SDS011;66752;48.576;8.876;2023-03-01T11:32:36;19.10;;;12.43;;
77432;SDS011;66752;48.576;8.876;2023-03-01T11:35:10;27.35;;;13.68;;
77432;SDS011;66752;48.576;8.876;2023-03-01T11:37:44;20.73;;;13.25;;
77432;SDS011;66752;48.576;8.876;2023-03-01T11:40:37;22.10;;;12.55;;
77432;SDS011;66752;48.576;8.876;2023-03-01T11:43:02;21.05;;;13.02;;
77432;SDS011;66752;48.576;8.876;2023-03-01T11:50:54;22.20;;;12.98;;
77432;SDS011;66752;48.576;8.876;2023-03-01T11:58:23;19.63;;;12.60;;
77432;SDS011;66752;48.576;8.876;2023-03-01T12:04:10;19.38;;;13.10;;
77432;SDS011;66752;48.576;8.876;2023-03-01T12:14:27;20.48;;;13.07;;
77432;SDS011;66752;48.576;8.876;2023-03-01T12:17:04;26.33;;;16.50;;
77432;SDS011;66752;48.576;8.876;2023-03-01T12:22:16;22.27;;;12.45;;
77432;SDS011;66752;48.576;8.876;2023-03-01T12:29:47;22.50;;;12.98;;
77432;SDS011;66752;48.576;8.876;2023-03-01T12:32:20;18.52;;;12.05;;
77432;SDS011;66752;48.576;8.876;2023-03-01T12:39:57;19.52;;;12.50;;
77432;SDS011;66752;48.576;8.876;2023-03-01T12:42:41;18.13;;;11.45;;
77432;SDS011;66752;48.576;8.876;2023-03-01T12:45:35;21.77;;;12.73;;
77432;SDS011;66752;48.576;8.876;2023-03-01T12:48:15;20.20;;;11.43;;
77432;SDS011;66752;48.576;8.876;2023-03-01T12:50:50;24.67;;;14.55;;
77432;SDS011;66752;48.576;8.876;2023-03-01T12:53:34;21.33;;;11.82;;
77432;SDS011;66752;48.576;8.876;2023-03-01T12:56:05;19.98;;;12.10;;
77432;SDS011;66752;48.576;8.876;2023-03-01T12:58:33;21.77;;;14.30;;
77432;SDS011;66752;48.576;8.876;2023-03-01T13:04:12;24.88;;;16.27;;
77432;SDS011;66752;48.576;8.876;2023-03-01T13:08:57;24.27;;;15.32;;
77432;SDS011;66752;48.576;8.876;2023-03-01T13:11:26;24.10;;;13.02;;
77432;SDS011;66752;48.576;8.876;2023-03-01T13:13:52;19.27;;;13.05;;
77432;SDS011;66752;48.576;8.876;2023-03-01T13:17:01;19.48;;;12.18;;
77432;SDS011;66752;48.576;8.876;2023-03-01T13:19:13;20.05;;;14.45;;
77432;SDS011;66752;48.576;8.876;2023-03-01T13:21:40;21.35;;;13.80;;
77432;SDS011;66752;48.576;8.876;2023-03-01T13:32:22;20.00;;;15.80;;
77432;SDS011;66752;48.576;8.876;2023-03-01T13:34:49;19.02;;;12.15;;
77432;SDS011;66752;48.576;8.876;2023-03-01T13:37:20;21.15;;;12.48;;
77432;SDS011;66752;48.576;8.876;2023-03-01T13:39:46;19.60;;;12.52;;
77432;SDS011;66752;48.576;8.876;2023-03-01T13:42:46;20.65;;;13.00;;
77432;SDS011;66752;48.576;8.876;2023-03-01T13:47:40;21.25;;;13.18;;
77432;SDS011;66752;48.576;8.876;2023-03-01T13:50:15;23.88;;;13.45;;
77432;SDS011;66752;48.576;8.876;2023-03-01T13:52:52;21.08;;;14.18;;
77432;SDS011;66752;48.576;8.876;2023-03-01T13:57:49;25.42;;;16.92;;
77432;SDS011;66752;48.576;8.876;2023-03-01T14:03:03;21.77;;;15.82;;
77432;SDS011;66752;48.576;8.876;2023-03-01T14:05:31;26.33;;;18.95;;
77432;SDS011;66752;48.576;8.876;2023-03-01T14:07:57;25.08;;;14.52;;
77432;SDS011;66752;48.576;8.876;2023-03-01T14:10:25;19.63;;;12.52;;
77432;SDS011;66752;48.576;8.876;2023-03-01T14:13:02;18.52;;;12.40;;
77432;SDS011;66752;48.576;8.876;2023-03-01T14:15:42;17.10;;;10.95;;
77432;SDS011;66752;48.576;8.876;2023-03-01T14:18:26;17.73;;;10.80;;
77432;SDS011;66752;48.576;8.876;2023-03-01T14:25:47;19.45;;;11.63;;
77432;SDS011;66752;48.576;8.876;2023-03-01T14:28:15;19.50;;;11.80;;
77432;SDS011;66752;48.576;8.876;2023-03-01T14:30:43;16.70;;;11.43;;
77432;SDS011;66752;48.576;8.876;2023-03-01T14:35:51;20.08;;;11.15;;
77432;SDS011;66752;48.576;8.876;2023-03-01T14:38:22;18.40;;;11.30;;
77432;SDS011;66752;48.576;8.876;2023-03-01T14:40:49;17.23;;;11.82;;
77432;SDS011;66752;48.576;8.876;2023-03-01T14:43:18;16.40;;;11.25;;
77432;SDS011;66752;48.576;8.876;2023-03-01T14:45:48;15.80;;;10.48;;
77432;SDS011;66752;48.576;8.876;2023-03-01T14:48:15;16.52;;;11.30;;
77432;SDS011;66752;48.576;8.876;2023-03-01T14:50:42;17.08;;;10.80;;
77432;SDS011;66752;48.576;8.876;2023-03-01T14:53:15;16.65;;;9.82;;
77432;SDS011;66752;48.576;8.876;2023-03-01T14:55:44;18.15;;;10.63;;
77432;SDS011;66752;48.576;8.876;2023-03-01T14:58:12;18.27;;;10.55;;
77432;SDS011;66752;48.576;8.876;2023-03-01T15:00:38;18.55;;;11.55;;
77432;SDS011;66752;48.576;8.876;2023-03-01T15:03:08;17.67;;;10.77;;
77432;SDS011;66752;48.576;8.876;2023-03-01T15:05:38;17.10;;;10.60;;
77432;SDS011;66752;48.576;8.876;2023-03-01T15:08:05;18.08;;;11.02;;
77432;SDS011;66752;48.576;8.876;2023-03-01T15:10:32;17.75;;;11.20;;
77432;SDS011;66752;48.576;8.876;2023-03-01T15:13:21;17.23;;;10.48;;
77432;SDS011;66752;48.576;8.876;2023-03-01T15:15:48;19.00;;;11.20;;
77432;SDS011;66752;48.576;8.876;2023-03-01T15:20:42;22.77;;;12.75;;
77432;SDS011;66752;48.576;8.876;2023-03-01T15:23:24;17.98;;;11.85;;
77432;SDS011;66752;48.576;8.876;2023-03-01T15:25:51;23.50;;;12.80;;
77432;SDS011;66752;48.576;8.876;2023-03-01T15:28:25;20.55;;;11.43;;
77432;SDS011;66752;48.576;8.876;2023-03-01T15:30:56;23.13;;;12.20;;
77432;SDS011;66752;48.576;8.876;2023-03-01T15:35:54;20.05;;;12.68;;
77432;SDS011;66752;48.576;8.876;2023-03-01T15:38:27;26.90;;;11.95;;
77432;SDS011;66752;48.576;8.876;2023-03-01T15:40:54;21.63;;;12.75;;
77432;SDS011;66752;48.576;8.876;2023-03-01T15:46:05;23.60;;;13.45;;
77432;SDS011;66752;48.576;8.876;2023-03-01T15:48:31;19.38;;;12.45;;
77432;SDS011;66752;48.576;8.876;2023-03-01T15:50:58;26.05;;;15.50;;
77432;SDS011;66752;48.576;8.876;2023-03-01T15:53:24;27.83;;;17.92;;
77432;SDS011;66752;48.576;8.876;2023-03-01T15:55:52;23.70;;;14.55;;
77432;SDS011;66752;48.576;8.876;2023-03-01T16:00:44;21.83;;;14.75;;
77432;SDS011;66752;48.576;8.876;2023-03-01T16:03:12;21.48;;;13.68;;
77432;SDS011;66752;48.576;8.876;2023-03-01T16:05:38;24.98;;;15.65;;
77432;SDS011;66752;48.576;8.876;2023-03-01T16:08:05;23.73;;;15.10;;
77432;SDS011;66752;48.576;8.876;2023-03-01T16:10:32;20.65;;;14.10;;
77432;SDS011;66752;48.576;8.876;2023-03-01T16:12:58;21.70;;;14.02;;
77432;SDS011;66752;48.576;8.876;2023-03-01T16:15:31;23.17;;;14.35;;
77432;SDS011;66752;48.576;8.876;2023-03-01T16:17:59;25.48;;;16.80;;
77432;SDS011;66752;48.576;8.876;2023-03-01T16:20:25;24.13;;;14.10;;
77432;SDS011;66752;48.576;8.876;2023-03-01T16:22:52;25.70;;;14.13;;